North Vernon, Indiana
Current Conditions -  °F | °C
As of 9:45 PM on Monday 20 Oct 2014 (Local Time) from KBAK Reporting Station
Clear Clear  
Wind Chill: 54°   Ceiling: Unl
Heat Index: 54°   Visibility: 10mi
Dew Point: 46°   Wind: 7mph
Humidity: 77%   Direction: 290°WNW
Pressure: 29.92"   Gusts: NA
Location:  39.01°N, 85.62°W
Report Text: KBAK 210145Z 29006KT 10SM SKC 12/08 A2992
Loading
Personal Weather Stations






























Interactive Weather Map
Tropical Storm Tracking
New forecast layout! Learn more

10-Day Weather Forecast

Advertisements
Track Severe Weather on mobile